Terminal Aerodrome Forecast
Issued by NWS

Home | Current Version | Previous Version | Graphics & Text | Print | Product List | Glossary On
Versions: 1 2 3 4 5 6 7 8 9 10 11 12 13 14 15 16 17 18 19 20 21 22 23 24
491
FTUS45 KGGW 241136
TAFGDV
TAF
KGDV 241136Z 2412/2512 00000KT P6SM FEW160
     FM241900 18006KT P6SM SKC
     FM250000 16010KT P6SM FEW220
     FM250800 15011KT P6SM SCT160 WS020/18035KT
     FM250900 17010KT P6SM SCT160=

USA.gov is the U.S. government's official web portal to all federal, state and local government web resources and services.